Terminal Aerodrome Forecast
Issued by NWS Twin Cities, MN

Home | Current Version | Previous Version | Text Only | Print | Product List | Glossary On
Versions: 1 2 3 4 5 6 7 8 9 10 11 12 13 14 15 16 17 18 19 20 21 22 23 24 25 26 27 28 29 30
229
FTUS43 KMPX 082320
TAFMSP
TAF
KMSP 082320Z 0900/1006 32015G25KT P6SM SCT020 BKN030
      TEMPO 0900/0903 5SM -SN OVC025
     FM091400 32014G24KT P6SM SCT030
     FM092200 32013G21KT P6SM SKC=

USA.gov is the U.S. government's official web portal to all federal, state and local government web resources and services.